createdAt,value
2023-03-03T00:02:07.834Z,3.60
2023-03-03T00:04:37.977Z,6.30
2023-03-03T00:07:09.037Z,6.90
2023-03-03T00:09:39.233Z,9.20
2023-03-03T00:12:25.053Z,4.20
2023-03-03T00:14:55.841Z,3.10
2023-03-03T00:17:27.354Z,1.90
2023-03-03T00:19:58.263Z,6.20
2023-03-03T00:22:31.596Z,7.30
2023-03-03T00:25:03.585Z,14.60
2023-03-03T00:27:37.381Z,3.00
2023-03-03T00:30:20.709Z,4.80
2023-03-03T00:32:52.748Z,10.80
2023-03-03T00:35:27.504Z,3.60
2023-03-03T00:37:59.566Z,3.90
2023-03-03T00:40:34.527Z,4.60
2023-03-03T00:43:16.209Z,4.00
2023-03-03T00:45:48.090Z,5.30
2023-03-03T00:48:30.080Z,7.50
2023-03-03T00:51:01.824Z,5.00
2023-03-03T00:53:32.888Z,2.30
2023-03-03T00:56:05.696Z,4.60
2023-03-03T00:58:35.957Z,6.70
2023-03-03T01:01:07.388Z,3.60
2023-03-03T01:03:38.039Z,4.90
2023-03-03T01:06:08.764Z,5.00
2023-03-03T01:08:39.241Z,5.50
2023-03-03T01:11:11.987Z,3.80
2023-03-03T01:13:45.125Z,12.50
2023-03-03T01:16:15.685Z,9.40
2023-03-03T01:18:46.036Z,5.60
2023-03-03T01:21:16.221Z,4.10
2023-03-03T01:23:46.569Z,2.40
2023-03-03T01:26:17.513Z,2.60
2023-03-03T01:28:47.802Z,3.70
2023-03-03T01:31:18.260Z,5.30
2023-03-03T01:33:49.222Z,7.90
2023-03-03T01:36:24.763Z,5.70
2023-03-03T01:38:55.410Z,2.50
2023-03-03T01:41:30.005Z,5.10
2023-03-03T01:44:00.382Z,1.50
2023-03-03T01:46:46.563Z,1.30
2023-03-03T01:49:18.460Z,5.40
2023-03-03T01:51:51.944Z,1.30
2023-03-03T01:54:27.122Z,5.80
2023-03-03T01:57:00.653Z,3.00
2023-03-03T01:59:34.332Z,1.70
2023-03-03T02:02:05.451Z,2.30
2023-03-03T02:04:36.531Z,3.10
2023-03-03T02:07:10.621Z,4.40
2023-03-03T02:09:47.380Z,3.20
2023-03-03T02:12:19.731Z,5.20
2023-03-03T02:14:50.088Z,1.50
2023-03-03T02:17:20.588Z,2.30
2023-03-03T02:19:55.372Z,1.90
2023-03-03T02:22:33.764Z,1.70
2023-03-03T02:25:06.347Z,4.70
2023-03-03T02:27:37.158Z,5.20
2023-03-03T02:30:20.836Z,3.30
2023-03-03T02:32:51.413Z,3.40
2023-03-03T02:35:34.141Z,4.00
2023-03-03T02:38:12.547Z,3.70
2023-03-03T02:40:46.648Z,2.70
2023-03-03T02:43:18.473Z,2.10
2023-03-03T02:45:48.661Z,3.80
2023-03-03T02:48:19.298Z,3.70
2023-03-03T02:50:49.553Z,2.60
2023-03-03T02:53:20.003Z,4.50
2023-03-03T02:55:50.215Z,2.20
2023-03-03T02:58:20.661Z,2.80
2023-03-03T03:00:50.789Z,1.50
2023-03-03T03:03:21.185Z,3.50
2023-03-03T03:05:51.713Z,2.00
2023-03-03T03:08:22.319Z,11.00
2023-03-03T03:10:53.159Z,7.80
2023-03-03T03:13:23.605Z,5.10
2023-03-03T03:15:53.968Z,11.00
2023-03-03T03:18:24.381Z,7.90
2023-03-03T03:20:55.351Z,5.60
2023-03-03T03:23:26.032Z,7.80
2023-03-03T03:25:56.363Z,7.40
2023-03-03T03:28:27.019Z,8.00
2023-03-03T03:30:57.969Z,7.30
2023-03-03T03:33:28.845Z,7.30
2023-03-03T03:35:59.618Z,7.00
2023-03-03T03:38:34.366Z,11.40
2023-03-03T03:41:06.116Z,6.70
2023-03-03T03:43:36.865Z,2.50
2023-03-03T03:46:08.143Z,2.30
2023-03-03T03:48:38.580Z,5.80
2023-03-03T03:51:09.779Z,4.60
2023-03-03T03:53:40.051Z,5.30
2023-03-03T03:56:11.062Z,11.30
2023-03-03T03:58:42.561Z,10.20
2023-03-03T04:01:13.659Z,3.40
2023-03-03T04:03:44.081Z,6.20
2023-03-03T04:06:14.560Z,4.30
2023-03-03T04:08:44.853Z,3.40
2023-03-03T04:11:15.145Z,3.10
2023-03-03T04:13:45.481Z,7.90
2023-03-03T04:16:16.273Z,7.90
2023-03-03T04:18:47.529Z,4.50
2023-03-03T04:21:18.196Z,4.90
2023-03-03T04:23:49.238Z,9.50
2023-03-03T04:26:19.906Z,6.90
2023-03-03T04:28:50.606Z,5.20
2023-03-03T04:31:21.267Z,12.60
2023-03-03T04:33:52.007Z,5.00
2023-03-03T04:36:22.420Z,8.50
2023-03-03T04:38:52.791Z,7.60
2023-03-03T04:41:23.773Z,4.40
2023-03-03T04:43:54.103Z,5.20
2023-03-03T04:46:24.692Z,6.60
2023-03-03T04:48:56.657Z,9.00
2023-03-03T04:51:27.007Z,4.50
2023-03-03T04:53:57.779Z,8.80
2023-03-03T04:56:28.273Z,9.90
2023-03-03T04:58:58.623Z,3.70
2023-03-03T05:01:29.147Z,7.40
2023-03-03T05:03:59.468Z,8.20
2023-03-03T05:06:29.869Z,5.70
2023-03-03T05:09:00.141Z,10.20
2023-03-03T05:11:32.507Z,7.20
2023-03-03T05:14:03.661Z,9.20
2023-03-03T05:16:34.203Z,15.40
2023-03-03T05:19:05.187Z,15.60
2023-03-03T05:21:37.710Z,18.10
2023-03-03T05:24:08.537Z,12.20
2023-03-03T05:26:40.088Z,20.70
2023-03-03T05:29:11.011Z,14.80
2023-03-03T05:31:42.400Z,14.90
2023-03-03T05:34:14.261Z,12.10
2023-03-03T05:36:44.851Z,15.30
2023-03-03T05:39:15.041Z,18.00
2023-03-03T05:41:45.293Z,11.00
2023-03-03T05:44:16.225Z,14.90
2023-03-03T05:46:47.425Z,16.30
2023-03-03T05:49:18.485Z,14.60
2023-03-03T05:51:48.825Z,21.30
2023-03-03T05:54:19.178Z,17.20
2023-03-03T05:56:49.831Z,21.20
2023-03-03T05:59:20.423Z,18.30
2023-03-03T06:01:51.490Z,18.00
2023-03-03T06:04:22.128Z,25.20
2023-03-03T06:06:52.616Z,15.50
2023-03-03T06:09:23.473Z,13.50
2023-03-03T06:11:54.099Z,15.40
2023-03-03T06:14:26.903Z,17.60
2023-03-03T06:16:57.709Z,12.70
2023-03-03T06:19:28.258Z,17.30
2023-03-03T06:22:01.472Z,19.30
2023-03-03T06:24:32.561Z,17.40
2023-03-03T06:27:05.090Z,14.10
2023-03-03T06:29:36.803Z,17.30
2023-03-03T06:32:07.602Z,15.60
2023-03-03T06:34:38.036Z,20.20
2023-03-03T06:37:08.753Z,12.60
2023-03-03T06:39:39.178Z,18.20
2023-03-03T06:42:09.821Z,15.50
2023-03-03T06:44:40.193Z,15.10
2023-03-03T06:47:10.723Z,14.00
2023-03-03T06:49:41.266Z,23.90
2023-03-03T06:52:15.075Z,16.10
2023-03-03T06:54:46.155Z,17.50
2023-03-03T06:57:24.084Z,19.50
2023-03-03T06:59:55.550Z,13.20
2023-03-03T07:02:26.166Z,14.70
2023-03-03T07:04:57.822Z,14.70
2023-03-03T07:07:28.439Z,13.50
2023-03-03T07:09:59.064Z,11.30
2023-03-03T07:12:31.732Z,12.40
2023-03-03T07:15:17.534Z,15.90
2023-03-03T07:17:51.238Z,12.40
2023-03-03T07:20:25.436Z,15.00
2023-03-03T07:22:56.443Z,12.30
2023-03-03T07:25:32.820Z,11.20
2023-03-03T07:28:13.712Z,15.00
2023-03-03T07:30:44.482Z,15.30
2023-03-03T07:33:23.790Z,14.70
2023-03-03T07:35:55.625Z,14.70
2023-03-03T07:38:31.374Z,15.30
2023-03-03T07:41:03.920Z,14.20
2023-03-03T07:43:37.606Z,14.00
2023-03-03T07:46:27.445Z,12.20
2023-03-03T07:48:58.835Z,11.10
2023-03-03T07:51:32.753Z,10.40
2023-03-03T07:54:22.402Z,10.50
2023-03-03T07:56:53.324Z,12.30
2023-03-03T07:59:25.310Z,8.60
2023-03-03T08:01:57.848Z,8.40
2023-03-03T08:04:33.328Z,5.20
2023-03-03T08:07:04.379Z,7.80
2023-03-03T08:09:40.722Z,5.70
2023-03-03T08:12:36.278Z,4.30
2023-03-03T08:15:27.176Z,3.60
2023-03-03T08:17:57.784Z,5.90
2023-03-03T08:20:46.066Z,13.70
2023-03-03T08:23:18.290Z,4.10
2023-03-03T08:25:49.855Z,4.30
2023-03-03T08:28:21.003Z,9.40
2023-03-03T08:31:02.603Z,6.80
2023-03-03T08:33:39.790Z,6.50
2023-03-03T08:36:11.855Z,5.50
2023-03-03T08:38:42.905Z,6.10
2023-03-03T08:41:16.087Z,10.10
2023-03-03T08:43:46.696Z,7.40
2023-03-03T08:46:19.578Z,5.20
2023-03-03T08:48:50.134Z,4.70
2023-03-03T08:51:20.955Z,6.70
2023-03-03T08:53:51.448Z,5.70
2023-03-03T08:56:21.886Z,5.80
2023-03-03T08:59:02.070Z,9.80
2023-03-03T09:01:33.575Z,5.70
2023-03-03T09:04:04.175Z,6.20
2023-03-03T09:06:34.926Z,8.00
2023-03-03T09:09:05.752Z,7.90
2023-03-03T09:11:36.296Z,6.30
2023-03-03T09:14:13.103Z,8.40
2023-03-03T09:16:48.567Z,11.30
2023-03-03T09:19:23.763Z,13.30
2023-03-03T09:21:55.121Z,11.80
2023-03-03T09:24:29.236Z,16.10
2023-03-03T09:27:02.362Z,23.50
2023-03-03T09:29:36.355Z,11.30
2023-03-03T09:32:23.201Z,11.30
2023-03-03T09:34:55.991Z,13.30
2023-03-03T09:37:32.170Z,11.00
2023-03-03T09:40:02.795Z,9.70
2023-03-03T09:42:55.591Z,12.60
2023-03-03T09:45:43.132Z,9.30
2023-03-03T09:48:32.425Z,9.40
2023-03-03T09:54:43.972Z,7.90
2023-03-03T09:57:18.228Z,8.60
2023-03-03T10:00:12.173Z,9.40
2023-03-03T10:02:53.473Z,9.30
2023-03-03T10:05:45.168Z,7.80
2023-03-03T10:08:38.312Z,9.80
2023-03-03T10:11:19.400Z,12.80
2023-03-03T10:14:04.542Z,9.10
2023-03-03T10:16:52.323Z,11.20
2023-03-03T10:19:37.491Z,8.20
2023-03-03T10:22:29.445Z,5.40
2023-03-03T10:25:19.791Z,10.40
2023-03-03T10:28:11.805Z,9.80
2023-03-03T10:31:04.742Z,8.70
2023-03-03T10:33:44.328Z,6.90
2023-03-03T10:36:38.323Z,8.30
2023-03-03T10:39:36.192Z,6.80
2023-03-03T10:42:20.796Z,7.40
2023-03-03T10:45:14.480Z,7.80
2023-03-03T10:47:59.272Z,13.70
2023-03-03T10:50:37.387Z,8.20
2023-03-03T10:53:22.757Z,9.70
2023-03-03T10:56:24.334Z,10.10
2023-03-03T10:59:05.892Z,10.10
2023-03-03T11:01:46.648Z,10.90
2023-03-03T11:04:41.747Z,9.80
2023-03-03T11:07:15.852Z,9.10
2023-03-03T11:09:57.673Z,7.80
2023-03-03T11:12:38.958Z,8.10
2023-03-03T11:15:23.816Z,10.60
2023-03-03T11:18:07.446Z,10.00
2023-03-03T11:20:46.312Z,6.80
2023-03-03T11:23:30.239Z,7.60
2023-03-03T11:26:10.961Z,6.90
2023-03-03T11:29:10.144Z,7.70
2023-03-03T11:31:48.118Z,5.20
2023-03-03T11:34:30.573Z,6.50
2023-03-03T11:37:06.627Z,7.50
2023-03-03T11:39:37.511Z,5.60
2023-03-03T11:42:16.904Z,8.50
2023-03-03T11:44:50.055Z,6.90
2023-03-03T11:47:26.562Z,8.50
2023-03-03T11:50:01.615Z,4.80
2023-03-03T11:52:38.336Z,8.90
2023-03-03T11:55:15.312Z,21.70
2023-03-03T11:57:49.508Z,7.60
2023-03-03T12:00:29.095Z,6.80
2023-03-03T12:03:16.939Z,5.70
2023-03-03T12:05:58.320Z,6.70
2023-03-03T12:09:05.604Z,9.90
2023-03-03T12:11:42.207Z,5.60
2023-03-03T12:14:21.363Z,5.60
2023-03-03T12:16:57.597Z,4.70
2023-03-03T12:19:42.730Z,5.90
2023-03-03T12:22:21.721Z,6.50
2023-03-03T12:25:04.346Z,8.10
2023-03-03T12:27:41.618Z,6.40
2023-03-03T12:30:26.849Z,10.40
2023-03-03T12:33:08.283Z,8.60
2023-03-03T12:35:43.706Z,10.30
2023-03-03T12:38:21.901Z,6.40
2023-03-03T12:40:58.136Z,7.60
2023-03-03T12:43:42.953Z,5.50
2023-03-03T12:46:28.613Z,5.80
2023-03-03T12:48:59.728Z,5.00
2023-03-03T12:51:37.556Z,7.10
2023-03-03T12:54:36.880Z,6.70
2023-03-03T12:57:15.073Z,7.90
2023-03-03T12:59:55.683Z,5.40
2023-03-03T13:02:40.902Z,9.30
2023-03-03T13:05:21.641Z,8.80
2023-03-03T13:07:59.070Z,9.10
2023-03-03T13:10:36.630Z,6.60
2023-03-03T13:13:14.081Z,8.60
2023-03-03T13:15:55.422Z,7.50
2023-03-03T13:18:37.415Z,7.90
2023-03-03T13:21:12.735Z,6.50
2023-03-03T13:23:50.131Z,7.10
2023-03-03T13:26:23.406Z,6.90
2023-03-03T13:29:00.142Z,7.60
2023-03-03T13:31:34.311Z,7.00
2023-03-03T13:34:09.240Z,8.40
2023-03-03T13:36:43.392Z,6.90
2023-03-03T13:39:20.320Z,8.00
2023-03-03T13:44:25.043Z,9.50
2023-03-03T13:47:05.241Z,8.70
2023-03-03T13:49:47.735Z,7.60
2023-03-03T13:52:22.474Z,8.30
2023-03-03T13:54:58.420Z,7.40
2023-03-03T13:57:55.869Z,9.20
2023-03-03T14:00:35.938Z,7.70
2023-03-03T14:03:31.479Z,11.40
2023-03-03T14:06:04.848Z,7.30
2023-03-03T14:08:51.462Z,6.10
2023-03-03T14:11:27.039Z,7.30
2023-03-03T14:14:02.903Z,6.00
2023-03-03T14:16:43.651Z,11.50
2023-03-03T14:19:18.021Z,7.10
2023-03-03T14:21:54.085Z,6.90
2023-03-03T14:24:26.324Z,5.20
2023-03-03T14:27:01.278Z,4.70
2023-03-03T14:29:36.122Z,7.40
2023-03-03T14:32:43.265Z,4.10
2023-03-03T14:35:20.442Z,4.90
2023-03-03T14:37:52.368Z,4.30
2023-03-03T14:40:24.222Z,4.40
2023-03-03T14:43:03.674Z,5.90
2023-03-03T14:45:37.501Z,11.40
2023-03-03T14:48:18.552Z,6.10
2023-03-03T14:50:53.558Z,5.00
2023-03-03T14:53:35.506Z,8.50
2023-03-03T14:56:24.657Z,9.50
2023-03-03T14:58:55.821Z,10.80
2023-03-03T15:01:34.535Z,9.70
2023-03-03T15:04:08.777Z,9.20
2023-03-03T15:06:43.391Z,8.30
2023-03-03T15:09:27.827Z,10.00
2023-03-03T15:11:59.720Z,11.10
2023-03-03T15:14:33.849Z,12.60
2023-03-03T15:17:26.231Z,10.60
2023-03-03T15:20:10.918Z,10.70
2023-03-03T15:22:49.243Z,14.50
2023-03-03T15:25:42.274Z,11.00
2023-03-03T15:28:25.614Z,11.00
2023-03-03T15:31:02.051Z,11.80
2023-03-03T15:33:35.771Z,13.50
2023-03-03T15:36:12.174Z,9.70
2023-03-03T15:38:50.129Z,11.10
2023-03-03T15:41:27.533Z,7.90
2023-03-03T15:44:12.983Z,8.00
2023-03-03T15:46:53.396Z,9.00
2023-03-03T15:49:41.997Z,8.60
2023-03-03T15:52:23.282Z,8.90
2023-03-03T15:55:01.193Z,8.30
2023-03-03T15:57:40.261Z,8.20
2023-03-03T16:00:26.209Z,6.80
2023-03-03T16:02:59.105Z,10.50
2023-03-03T16:05:32.441Z,8.00
2023-03-03T16:08:11.275Z,8.30
2023-03-03T16:10:52.244Z,8.10
2023-03-03T16:13:31.296Z,10.40
2023-03-03T16:16:09.002Z,12.20
2023-03-03T16:18:47.911Z,14.80
2023-03-03T16:21:32.234Z,8.90
2023-03-03T16:24:08.922Z,12.30
2023-03-03T16:26:46.041Z,17.80
2023-03-03T16:29:38.716Z,13.70
2023-03-03T16:32:14.205Z,12.60
2023-03-03T16:34:55.981Z,15.20
2023-03-03T16:37:31.289Z,14.40
2023-03-03T16:40:11.611Z,14.30
2023-03-03T16:42:42.132Z,19.10
2023-03-03T16:45:22.879Z,17.60
2023-03-03T16:48:08.811Z,16.40
2023-03-03T16:50:50.373Z,16.80
2023-03-03T16:53:35.367Z,18.90
2023-03-03T16:56:09.068Z,22.00
2023-03-03T16:58:50.846Z,18.90
2023-03-03T17:01:28.664Z,13.60
2023-03-03T17:04:02.770Z,17.10
2023-03-03T17:06:43.428Z,14.80
2023-03-03T17:09:35.490Z,14.20
2023-03-03T17:12:14.579Z,26.40
2023-03-03T17:15:16.365Z,14.10
2023-03-03T17:17:52.964Z,12.50
2023-03-03T17:20:31.584Z,15.40
2023-03-03T17:23:33.810Z,21.30
2023-03-03T17:26:11.499Z,16.90
2023-03-03T17:28:47.012Z,15.50
2023-03-03T17:31:24.460Z,18.90
2023-03-03T17:34:04.426Z,18.90
2023-03-03T17:36:45.165Z,23.00
2023-03-03T17:39:32.861Z,27.10
2023-03-03T17:42:07.904Z,23.10
2023-03-03T17:44:42.347Z,23.50
2023-03-03T17:47:23.670Z,25.10
2023-03-03T17:50:05.620Z,17.90
2023-03-03T17:53:03.025Z,18.80
2023-03-03T17:55:39.078Z,22.40
2023-03-03T17:58:42.368Z,17.90
2023-03-03T18:01:22.261Z,16.80
2023-03-03T18:04:09.696Z,17.40
2023-03-03T18:07:00.858Z,15.90
2023-03-03T18:09:41.269Z,15.10
2023-03-03T18:12:16.274Z,17.10
2023-03-03T18:15:10.504Z,13.90
2023-03-03T18:17:53.472Z,18.30
2023-03-03T18:20:55.903Z,15.60
2023-03-03T18:23:41.852Z,15.20
2023-03-03T18:26:39.722Z,14.10
2023-03-03T18:29:18.346Z,17.50
2023-03-03T18:32:20.111Z,15.60
2023-03-03T18:34:52.416Z,20.20
2023-03-03T18:37:40.728Z,17.60
2023-03-03T18:40:34.272Z,20.30
2023-03-03T18:43:35.817Z,16.70
2023-03-03T18:46:06.941Z,14.10
2023-03-03T18:48:50.590Z,19.80
2023-03-03T18:51:53.419Z,18.40
2023-03-03T18:54:30.953Z,16.80
2023-03-03T18:57:22.502Z,35.70
2023-03-03T18:59:58.496Z,18.70
2023-03-03T19:02:37.988Z,21.90
2023-03-03T19:05:19.583Z,24.20
2023-03-03T19:07:53.019Z,26.30
2023-03-03T19:10:48.559Z,24.00
2023-03-03T19:13:41.081Z,26.50
2023-03-03T19:16:12.638Z,23.80
2023-03-03T19:19:00.322Z,21.50
2023-03-03T19:21:32.919Z,23.70
2023-03-03T19:24:07.331Z,26.10
2023-03-03T19:26:58.139Z,24.80
2023-03-03T19:29:57.083Z,24.60
2023-03-03T19:32:37.664Z,21.10
2023-03-03T19:35:22.248Z,23.60
2023-03-03T19:38:02.717Z,30.00
2023-03-03T19:40:43.705Z,23.00
2023-03-03T19:43:26.259Z,24.70
2023-03-03T19:46:05.975Z,25.50
2023-03-03T19:48:42.982Z,23.00
2023-03-03T19:53:53.265Z,26.30
2023-03-03T19:56:29.837Z,22.10
2023-03-03T19:59:13.479Z,22.50
2023-03-03T20:01:54.765Z,25.30
2023-03-03T20:04:47.580Z,23.60
2023-03-03T20:07:30.964Z,26.00
2023-03-03T20:10:13.559Z,23.30
2023-03-03T20:13:04.619Z,29.50
2023-03-03T20:15:45.841Z,24.70
2023-03-03T20:18:39.205Z,21.10
2023-03-03T20:21:27.997Z,22.10
2023-03-03T20:24:19.015Z,23.30
2023-03-03T20:27:05.629Z,26.50
2023-03-03T20:30:00.183Z,18.30
2023-03-03T20:32:54.233Z,19.90
2023-03-03T20:35:38.029Z,24.10
2023-03-03T20:38:16.821Z,21.10
2023-03-03T20:40:53.239Z,18.60
2023-03-03T20:43:30.921Z,17.40
2023-03-03T20:46:16.164Z,22.50
2023-03-03T20:48:55.786Z,23.00
2023-03-03T20:51:31.008Z,23.30
2023-03-03T20:54:07.689Z,18.20
2023-03-03T20:56:47.364Z,17.80
2023-03-03T20:59:33.865Z,16.00
2023-03-03T21:04:39.168Z,17.20
2023-03-03T21:07:10.399Z,15.40
2023-03-03T21:09:41.853Z,14.60
2023-03-03T21:12:29.575Z,17.30
2023-03-03T21:15:04.483Z,14.30
2023-03-03T21:17:52.703Z,14.10
2023-03-03T21:20:27.280Z,14.20
2023-03-03T21:23:05.806Z,13.40
2023-03-03T21:25:52.582Z,13.90
2023-03-03T21:28:27.631Z,17.00
2023-03-03T21:31:03.053Z,20.20
2023-03-03T21:33:47.571Z,15.30
2023-03-03T21:36:19.249Z,16.60
2023-03-03T21:38:52.274Z,14.50
2023-03-03T21:41:23.770Z,19.10
2023-03-03T21:43:55.148Z,19.50
2023-03-03T21:46:27.196Z,12.90
2023-03-03T21:48:57.631Z,14.90
2023-03-03T21:51:31.083Z,15.50
2023-03-03T21:54:01.814Z,18.20
2023-03-03T21:56:34.567Z,17.90
2023-03-03T21:59:05.043Z,16.90
2023-03-03T22:01:38.396Z,14.50
2023-03-03T22:04:11.857Z,14.70
2023-03-03T22:06:42.505Z,17.40
2023-03-03T22:09:12.943Z,14.70
2023-03-03T22:11:43.699Z,15.90
2023-03-03T22:14:13.990Z,13.50
2023-03-03T22:16:44.445Z,16.00
2023-03-03T22:19:14.896Z,20.90
2023-03-03T22:21:46.510Z,14.40
2023-03-03T22:24:16.943Z,15.00
2023-03-03T22:26:47.933Z,16.30
2023-03-03T22:29:22.481Z,14.30
2023-03-03T22:31:53.258Z,14.70
2023-03-03T22:34:24.147Z,13.50
2023-03-03T22:36:54.490Z,16.70
2023-03-03T22:39:24.683Z,20.00
2023-03-03T22:41:57.685Z,17.70
2023-03-03T22:44:28.040Z,18.10
2023-03-03T22:46:58.367Z,16.90
2023-03-03T22:49:29.132Z,31.50
2023-03-03T22:52:00.586Z,19.60
2023-03-03T22:54:30.933Z,19.00
2023-03-03T22:57:01.475Z,16.70
2023-03-03T22:59:32.476Z,17.10
2023-03-03T23:02:02.806Z,16.60
2023-03-03T23:04:33.526Z,16.80
2023-03-03T23:07:04.297Z,19.90
2023-03-03T23:09:34.649Z,20.40
2023-03-03T23:12:05.126Z,18.80
2023-03-03T23:14:35.388Z,17.70
2023-03-03T23:17:05.849Z,16.30
2023-03-03T23:19:36.316Z,17.90
2023-03-03T23:22:06.457Z,18.90
2023-03-03T23:24:36.967Z,18.90
2023-03-03T23:27:07.210Z,20.20
2023-03-03T23:29:37.700Z,18.40
2023-03-03T23:32:08.395Z,16.10
2023-03-03T23:34:38.710Z,18.80
2023-03-03T23:37:09.070Z,16.50
2023-03-03T23:39:40.385Z,15.20
2023-03-03T23:42:11.244Z,18.00
2023-03-03T23:44:41.630Z,15.30
2023-03-03T23:47:12.136Z,13.80
2023-03-03T23:49:42.503Z,16.50
2023-03-03T23:52:13.017Z,23.00
2023-03-03T23:54:43.320Z,20.20
2023-03-03T23:57:13.644Z,21.60
2023-03-03T23:59:43.905Z,17.80
